createdAt,value
2019-05-06T00:00:24.521Z,9.98
2019-05-06T00:30:27.455Z,8.37
2019-05-06T01:00:30.057Z,7.10
2019-05-06T01:30:33.708Z,9.93
2019-05-06T02:00:39.437Z,9.97
2019-05-06T02:30:40.610Z,9.03
2019-05-06T03:00:43.295Z,9.80
2019-05-06T03:30:46.426Z,8.63
2019-05-06T04:00:49.192Z,9.20
2019-05-06T04:30:54.550Z,16.50
2019-05-06T05:00:56.229Z,14.53
2019-05-06T05:30:58.904Z,12.60
2019-05-06T06:01:03.936Z,7.07
2019-05-06T06:31:05.752Z,5.63
2019-05-06T07:01:08.345Z,6.83
2019-05-06T07:31:21.971Z,5.53
2019-05-06T08:01:15.456Z,6.72
2019-05-06T08:31:18.064Z,3.37
2019-05-06T09:01:22.401Z,3.62
2019-05-06T09:31:25.581Z,1.47
2019-05-06T10:01:28.183Z,4.53
2019-05-06T10:31:32.703Z,3.22
2019-05-06T11:01:35.089Z,2.98
2019-05-06T11:31:37.711Z,3.02
2019-05-06T12:01:40.306Z,3.72
2019-05-06T12:31:43.832Z,3.05
2019-05-06T13:01:46.457Z,5.47
2019-05-06T13:31:49.645Z,6.55
2019-05-06T14:01:54.412Z,7.40
2019-05-06T14:31:57.061Z,7.78
2019-05-06T15:02:02.637Z,7.12
2019-05-06T15:32:04.990Z,11.45
2019-05-06T16:02:07.731Z,7.03
2019-05-06T16:32:10.471Z,9.77
2019-05-06T17:02:13.994Z,7.40
2019-05-06T17:32:16.976Z,5.42
2019-05-06T18:02:19.624Z,6.50
2019-05-06T18:32:23.380Z,7.50
2019-05-06T19:02:26.882Z,7.97
2019-05-06T19:32:34.958Z,12.70
2019-05-06T20:02:35.009Z,10.60
2019-05-06T20:32:37.660Z,12.63
2019-05-06T21:02:42.341Z,19.47
2019-05-06T21:32:44.549Z,17.70
2019-05-06T22:02:47.259Z,17.80
2019-05-06T22:32:50.100Z,10.73
2019-05-06T23:02:52.875Z,13.13
2019-05-06T23:32:55.500Z,16.63
